X  Close Metar Aviation Weather Data     CYYC Calgary International Airport
Temperature
5°C Temperature
-8°C Dewpoint
39% Humidity



Wind
11 KM/H
7 MPH
3 M/S
6 KTS



170°
South
Current Conditions

Partly Cloudy Partly Cloudy
Pressure 1008.82 (hPa) - 29.79 (inHg)
Visibility 39.8 (mile) - 64 (km)
Airport
Airport-code CYYC

Location: Calgary International Airport
Distance: 4 (km)

Metar:
CYYC 061900Z 17006KT 40SM FEW055 BKN120 05/M08 A2979 RMK CU1AC7 CU TR /DIST SH NW SLP122

Time: 06-11-2021 13:00 MST